createdAt,value
2018-11-29T00:02:27.745Z,25.57
2018-11-29T00:05:12.819Z,27.00
2018-11-29T00:07:56.417Z,27.17
2018-11-29T00:10:25.592Z,25.00
2018-11-29T00:12:54.751Z,27.47
2018-11-29T00:15:23.953Z,29.00
2018-11-29T00:17:53.505Z,26.80
2018-11-29T00:20:23.615Z,25.83
2018-11-29T00:22:52.584Z,30.77
2018-11-29T00:25:21.749Z,32.07
2018-11-29T00:27:50.677Z,29.30
2018-11-29T00:30:19.663Z,26.50
2018-11-29T00:32:48.423Z,26.80
2018-11-29T00:35:17.438Z,22.10
2018-11-29T00:37:46.433Z,25.97
2018-11-29T00:40:15.197Z,27.03
2018-11-29T00:42:44.776Z,29.90
2018-11-29T00:45:13.489Z,23.07
2018-11-29T00:47:42.698Z,26.23
2018-11-29T00:50:11.633Z,30.70
2018-11-29T00:52:40.804Z,27.07
2018-11-29T00:55:10.575Z,25.62
2018-11-29T00:57:39.312Z,21.83
2018-11-29T01:00:07.996Z,25.30
2018-11-29T01:02:37.155Z,28.60
2018-11-29T01:05:06.108Z,24.70
2018-11-29T01:07:35.035Z,28.40
2018-11-29T01:10:03.738Z,27.90
2018-11-29T01:12:33.005Z,29.90
2018-11-29T01:15:02.293Z,26.30
2018-11-29T01:17:31.775Z,27.33
2018-11-29T01:20:01.072Z,24.40
2018-11-29T01:22:30.331Z,27.27
2018-11-29T01:24:59.811Z,29.50
2018-11-29T01:27:29.128Z,24.10
2018-11-29T01:29:58.412Z,25.40
2018-11-29T01:32:28.059Z,23.50
2018-11-29T01:34:57.341Z,28.13
2018-11-29T01:37:26.898Z,27.02
2018-11-29T01:39:56.177Z,24.37
2018-11-29T01:42:25.452Z,22.80
2018-11-29T01:44:54.832Z,21.13
2018-11-29T01:47:24.112Z,26.15
2018-11-29T01:49:53.367Z,21.77
2018-11-29T01:52:22.966Z,22.30
2018-11-29T01:54:53.123Z,20.23
2018-11-29T01:57:22.399Z,26.67
2018-11-29T01:59:51.856Z,20.23
2018-11-29T02:02:20.964Z,21.00
2018-11-29T02:04:50.227Z,20.50
2018-11-29T02:07:19.503Z,17.13
2018-11-29T02:09:48.780Z,21.47
2018-11-29T02:12:19.308Z,17.80
2018-11-29T02:14:49.391Z,22.13
2018-11-29T02:17:18.964Z,24.07
2018-11-29T02:19:49.013Z,19.83
2018-11-29T02:22:18.283Z,24.77
2018-11-29T02:24:47.617Z,21.77
2018-11-29T02:27:16.906Z,17.07
2018-11-29T02:29:46.022Z,23.57
2018-11-29T02:32:15.298Z,22.90
2018-11-29T02:34:44.563Z,21.07
2018-11-29T02:37:14.135Z,20.90
2018-11-29T02:45:36.139Z,20.37
2018-11-29T02:48:05.171Z,22.83
2018-11-29T02:50:34.449Z,24.03
2018-11-29T02:53:03.714Z,23.60
2018-11-29T02:55:33.703Z,27.57
2018-11-29T02:58:03.256Z,20.93
2018-11-29T03:00:32.531Z,18.87
2018-11-29T03:03:02.106Z,23.15
2018-11-29T03:05:31.385Z,22.93
2018-11-29T03:08:00.643Z,20.57
2018-11-29T03:10:30.221Z,21.25
2018-11-29T03:12:59.491Z,22.03
2018-11-29T03:15:28.769Z,19.93
2018-11-29T03:17:58.229Z,17.77
2018-11-29T03:20:27.971Z,18.07
2018-11-29T03:22:57.706Z,20.00
2018-11-29T03:25:27.262Z,21.62
2018-11-29T03:27:56.557Z,23.43
2018-11-29T03:30:26.107Z,21.80
2018-11-29T03:32:55.372Z,19.53
2018-11-29T03:35:24.940Z,20.63
2018-11-29T03:37:54.376Z,21.63
2018-11-29T03:40:23.330Z,14.80
2018-11-29T03:42:52.785Z,20.47
2018-11-29T03:45:22.216Z,21.35
2018-11-29T03:47:51.484Z,20.93
2018-11-29T03:50:20.886Z,20.57
2018-11-29T03:52:50.417Z,21.10
2018-11-29T03:55:19.880Z,21.33
2018-11-29T03:57:49.365Z,14.87
2018-11-29T04:00:18.330Z,17.37
2018-11-29T04:02:47.756Z,24.00
2018-11-29T04:05:17.264Z,18.25
2018-11-29T04:07:46.405Z,18.80
2018-11-29T04:10:15.672Z,21.30
2018-11-29T04:12:44.899Z,20.25
2018-11-29T04:15:13.670Z,25.33
2018-11-29T04:17:42.610Z,22.33
2018-11-29T04:20:11.321Z,24.50
2018-11-29T04:22:40.827Z,18.57
2018-11-29T04:25:10.888Z,25.97
2018-11-29T04:27:40.425Z,15.40
2018-11-29T04:30:09.364Z,20.40
2018-11-29T04:32:38.633Z,19.93
2018-11-29T04:35:07.347Z,22.10
2018-11-29T04:37:37.476Z,18.60
2018-11-29T04:40:06.608Z,19.23
2018-11-29T04:42:35.870Z,22.60
2018-11-29T04:45:04.881Z,22.63
2018-11-29T04:47:34.171Z,22.10
2018-11-29T04:50:03.214Z,21.93
2018-11-29T04:52:32.188Z,15.63
2018-11-29T04:55:01.518Z,15.20
2018-11-29T04:57:30.956Z,20.90
2018-11-29T05:00:00.534Z,20.17
2018-11-29T05:02:29.824Z,24.73
2018-11-29T05:04:59.092Z,21.00
2018-11-29T05:07:28.446Z,15.60
2018-11-29T05:09:57.715Z,20.00
2018-11-29T05:12:26.994Z,22.47
2018-11-29T05:14:56.551Z,19.40
2018-11-29T05:17:25.815Z,17.73
2018-11-29T05:19:55.083Z,20.77
2018-11-29T05:22:24.657Z,17.60
2018-11-29T05:24:53.920Z,22.10
2018-11-29T05:27:23.496Z,23.25
2018-11-29T05:29:52.763Z,21.10
2018-11-29T05:32:22.024Z,20.32
2018-11-29T05:34:51.308Z,20.57
2018-11-29T05:37:20.875Z,20.25
2018-11-29T05:39:50.432Z,21.25
2018-11-29T05:42:20.123Z,20.10
2018-11-29T05:44:49.672Z,19.60
2018-11-29T05:47:19.858Z,23.80
2018-11-29T05:49:49.636Z,18.60
2018-11-29T05:52:18.697Z,22.30
2018-11-29T05:54:47.978Z,24.80
2018-11-29T05:57:17.260Z,23.87
2018-11-29T05:59:46.765Z,20.40
2018-11-29T06:02:15.704Z,21.63
2018-11-29T06:04:44.985Z,19.97
2018-11-29T06:07:14.547Z,20.55
2018-11-29T06:09:44.487Z,20.77
2018-11-29T06:12:13.908Z,21.57
2018-11-29T06:14:43.180Z,19.10
2018-11-29T06:17:12.743Z,20.90
2018-11-29T06:19:41.780Z,21.00
2018-11-29T06:22:11.991Z,22.52
2018-11-29T06:24:41.556Z,23.65
2018-11-29T06:27:12.500Z,18.40
2018-11-29T06:29:41.864Z,15.50
2018-11-29T06:32:12.073Z,21.23
2018-11-29T06:34:41.306Z,18.20
2018-11-29T06:37:12.052Z,20.08
2018-11-29T06:39:41.315Z,18.97
2018-11-29T06:42:12.083Z,18.15
2018-11-29T06:44:41.360Z,21.47
2018-11-29T06:47:12.216Z,21.87
2018-11-29T06:49:41.493Z,22.67
2018-11-29T06:52:12.069Z,20.75
2018-11-29T06:54:41.330Z,20.67
2018-11-29T06:57:12.092Z,18.52
2018-11-29T06:59:41.357Z,19.33
2018-11-29T07:02:10.512Z,24.70
2018-11-29T07:04:39.804Z,19.90
2018-11-29T07:07:09.135Z,21.07
2018-11-29T07:09:38.408Z,23.60
2018-11-29T07:12:07.651Z,17.10
2018-11-29T07:14:36.981Z,17.40
2018-11-29T07:17:07.248Z,20.57
2018-11-29T07:19:36.860Z,17.73
2018-11-29T07:22:05.801Z,19.60
2018-11-29T07:24:35.069Z,20.40
2018-11-29T07:27:04.072Z,21.20
2018-11-29T07:29:33.335Z,15.73
2018-11-29T07:32:02.916Z,19.60
2018-11-29T07:34:32.188Z,20.80
2018-11-29T07:37:02.730Z,18.30
2018-11-29T07:39:31.992Z,16.50
2018-11-29T07:42:01.071Z,20.43
2018-11-29T07:44:30.112Z,21.77
2018-11-29T07:46:59.380Z,21.90
2018-11-29T07:49:28.870Z,22.62
2018-11-29T07:51:57.808Z,21.27
2018-11-29T07:54:27.383Z,20.93
2018-11-29T07:56:56.935Z,21.12
2018-11-29T07:59:26.232Z,27.07
2018-11-29T08:01:55.184Z,22.03
2018-11-29T08:04:24.446Z,18.50
2018-11-29T08:06:53.958Z,20.90
2018-11-29T08:09:23.373Z,22.53
2018-11-29T08:11:52.934Z,21.17
2018-11-29T08:14:22.213Z,21.67
2018-11-29T08:16:51.483Z,22.97
2018-11-29T08:19:21.057Z,20.05
2018-11-29T08:21:50.331Z,21.43
2018-11-29T08:24:20.780Z,17.55
2018-11-29T08:26:50.107Z,25.10
2018-11-29T08:29:19.937Z,21.00
2018-11-29T08:31:49.202Z,21.83
2018-11-29T08:34:18.248Z,20.07
2018-11-29T08:36:47.521Z,20.47
2018-11-29T08:39:16.736Z,23.90
2018-11-29T08:41:47.154Z,20.77
2018-11-29T08:44:16.432Z,21.50
2018-11-29T08:46:46.083Z,22.53
2018-11-29T08:49:15.520Z,17.60
2018-11-29T08:51:45.007Z,23.00
2018-11-29T08:54:14.300Z,21.83
2018-11-29T08:56:43.235Z,20.93
2018-11-29T08:59:12.322Z,21.73
2018-11-29T09:01:41.583Z,25.27
2018-11-29T09:04:12.395Z,18.27
2018-11-29T09:06:42.075Z,22.67
2018-11-29T09:09:12.420Z,21.97
2018-11-29T09:11:41.688Z,26.10
2018-11-29T09:14:12.504Z,24.85
2018-11-29T09:16:42.066Z,24.00
2018-11-29T09:19:12.468Z,23.80
2018-11-29T09:21:42.024Z,26.68
2018-11-29T09:24:12.628Z,24.70
2018-11-29T09:26:42.231Z,24.83
2018-11-29T09:29:13.821Z,25.05
2018-11-29T09:31:41.948Z,25.53
2018-11-29T09:34:12.540Z,26.55
2018-11-29T09:36:41.771Z,22.30
2018-11-29T09:39:12.610Z,27.17
2018-11-29T09:41:42.115Z,27.50
2018-11-29T09:44:12.611Z,26.42
2018-11-29T09:46:42.151Z,22.47
2018-11-29T09:49:12.164Z,25.72
2018-11-29T09:51:41.423Z,26.70
2018-11-29T09:54:10.705Z,24.37
2018-11-29T09:56:40.284Z,28.83
2018-11-29T09:59:09.548Z,26.47
2018-11-29T10:01:38.784Z,27.82
2018-11-29T10:04:08.335Z,28.60
2018-11-29T10:06:37.621Z,27.57
2018-11-29T10:09:06.869Z,21.07
2018-11-29T10:11:36.269Z,22.20
2018-11-29T10:14:05.204Z,28.37
2018-11-29T10:16:34.319Z,30.17
2018-11-29T10:19:03.601Z,23.53
2018-11-29T10:21:33.156Z,32.13
2018-11-29T10:24:02.443Z,22.30
2018-11-29T10:26:31.714Z,22.40
2018-11-29T10:29:01.250Z,21.17
2018-11-29T10:31:30.249Z,26.27
2018-11-29T10:33:59.201Z,26.30
2018-11-29T10:36:28.587Z,23.97
2018-11-29T10:38:58.152Z,31.60
2018-11-29T10:41:27.514Z,22.83
2018-11-29T10:43:56.727Z,23.17
2018-11-29T10:46:26.290Z,26.25
2018-11-29T10:48:55.800Z,30.57
2018-11-29T10:51:25.359Z,27.73
2018-11-29T10:53:54.632Z,24.40
2018-11-29T10:56:23.916Z,25.63
2018-11-29T10:58:53.310Z,26.33
2018-11-29T11:01:22.690Z,29.25
2018-11-29T11:03:51.862Z,28.60
2018-11-29T11:06:21.587Z,30.88
2018-11-29T11:08:50.594Z,28.67
2018-11-29T11:11:21.603Z,25.02
2018-11-29T11:13:50.542Z,27.80
2018-11-29T11:16:19.475Z,23.67
2018-11-29T11:18:48.512Z,23.87
2018-11-29T11:21:17.545Z,23.47
2018-11-29T11:23:46.483Z,26.80
2018-11-29T11:26:16.047Z,24.53
2018-11-29T11:28:45.527Z,26.90
2018-11-29T11:31:14.799Z,24.00
2018-11-29T11:33:44.498Z,21.47
2018-11-29T11:36:14.067Z,27.53
2018-11-29T11:38:43.458Z,22.17
2018-11-29T11:41:12.830Z,22.73
2018-11-29T11:43:42.420Z,20.65
2018-11-29T11:46:12.831Z,19.87
2018-11-29T11:48:42.408Z,25.25
2018-11-29T11:51:12.792Z,18.85
2018-11-29T11:53:42.358Z,21.17
2018-11-29T11:56:12.792Z,25.75
2018-11-29T11:58:42.464Z,21.53
2018-11-29T12:01:12.731Z,25.20
2018-11-29T12:03:42.008Z,21.57
2018-11-29T12:06:12.891Z,22.10
2018-11-29T12:08:42.478Z,21.70
2018-11-29T12:11:12.859Z,23.92
2018-11-29T12:13:42.478Z,22.90
2018-11-29T12:16:12.832Z,20.05
2018-11-29T12:18:41.779Z,20.47
2018-11-29T12:21:11.061Z,28.37
2018-11-29T12:23:40.052Z,23.43
2018-11-29T12:26:10.088Z,27.23
2018-11-29T12:28:38.799Z,22.50
2018-11-29T12:31:07.734Z,19.90
2018-11-29T12:33:37.058Z,19.60
2018-11-29T12:36:06.620Z,22.53
2018-11-29T12:38:35.882Z,23.13
2018-11-29T12:41:04.886Z,23.77
2018-11-29T12:43:34.552Z,21.83
2018-11-29T12:46:03.833Z,24.80
2018-11-29T12:48:32.824Z,26.30
2018-11-29T12:51:02.101Z,21.07
2018-11-29T12:53:31.731Z,20.17
2018-11-29T12:56:01.193Z,18.90
2018-11-29T12:58:30.577Z,20.90
2018-11-29T13:00:59.846Z,22.73
2018-11-29T13:03:29.120Z,20.90
2018-11-29T13:05:58.690Z,22.50
2018-11-29T13:08:27.964Z,17.33
2018-11-29T13:10:57.528Z,18.40
2018-11-29T13:13:27.609Z,20.73
2018-11-29T13:15:56.654Z,21.50
2018-11-29T13:18:26.001Z,22.70
2018-11-29T13:20:54.700Z,35.17
2018-11-29T13:23:24.280Z,19.67
2018-11-29T13:25:53.780Z,19.97
2018-11-29T13:28:23.363Z,24.75
2018-11-29T13:30:52.891Z,18.97
2018-11-29T13:33:21.720Z,21.30
2018-11-29T13:35:51.497Z,16.73
2018-11-29T13:38:20.992Z,16.42
2018-11-29T13:40:51.079Z,23.07
2018-11-29T13:43:19.896Z,17.00
2018-11-29T13:45:49.391Z,19.00
2018-11-29T13:48:19.192Z,14.45
2018-11-29T13:50:48.803Z,18.70
2018-11-29T13:53:18.015Z,18.43
2018-11-29T13:55:47.411Z,16.23
2018-11-29T13:58:16.972Z,11.28
2018-11-29T14:00:47.258Z,16.33
2018-11-29T14:03:16.247Z,18.50
2018-11-29T14:05:45.756Z,14.57
2018-11-29T14:08:14.752Z,14.63
2018-11-29T14:10:43.691Z,18.77
2018-11-29T14:13:13.198Z,22.80
2018-11-29T14:15:42.470Z,16.83
2018-11-29T14:18:13.260Z,19.25
2018-11-29T14:20:42.465Z,16.65
2018-11-29T14:23:13.116Z,16.10
2018-11-29T14:25:42.679Z,15.53
2018-11-29T14:28:14.046Z,19.98
2018-11-29T14:30:42.748Z,19.00
2018-11-29T14:33:13.983Z,17.57
2018-11-29T14:35:43.272Z,23.03
2018-11-29T14:38:13.260Z,19.87
2018-11-29T14:40:44.799Z,17.35
2018-11-29T14:43:14.372Z,16.10
2018-11-29T14:45:43.936Z,18.60
2018-11-29T14:48:13.432Z,18.03
2018-11-29T14:50:42.841Z,15.10
2018-11-29T14:53:12.922Z,16.82
2018-11-29T14:55:41.866Z,15.63
2018-11-29T14:58:10.553Z,19.17
2018-11-29T15:00:39.798Z,17.97
2018-11-29T15:03:09.147Z,17.03
2018-11-29T15:05:38.371Z,19.23
2018-11-29T15:08:08.575Z,20.55
2018-11-29T15:10:36.696Z,16.37
2018-11-29T15:13:05.728Z,17.80
2018-11-29T15:15:35.076Z,18.93
2018-11-29T15:18:04.348Z,17.27
2018-11-29T15:20:33.916Z,17.77
2018-11-29T15:23:03.033Z,21.63
2018-11-29T15:25:33.137Z,17.40
2018-11-29T15:28:01.575Z,20.47
2018-11-29T15:30:30.807Z,16.10
2018-11-29T15:33:00.084Z,17.90
2018-11-29T15:35:29.482Z,23.70
2018-11-29T15:37:58.497Z,16.60
2018-11-29T15:40:28.361Z,19.60
2018-11-29T15:42:57.580Z,15.27
2018-11-29T15:45:26.817Z,21.33
2018-11-29T15:47:56.126Z,18.30
2018-11-29T15:50:25.532Z,19.83
2018-11-29T15:52:54.808Z,15.87
2018-11-29T15:55:24.559Z,17.43
2018-11-29T15:57:53.548Z,15.98
2018-11-29T16:00:22.864Z,21.30
2018-11-29T16:02:52.110Z,18.63
2018-11-29T16:05:21.551Z,21.33
2018-11-29T16:07:50.797Z,16.75
2018-11-29T16:10:20.354Z,16.77
2018-11-29T16:12:49.325Z,19.37
2018-11-29T16:15:18.247Z,17.00
2018-11-29T16:17:47.213Z,16.43
2018-11-29T16:20:17.150Z,20.40
2018-11-29T16:22:46.060Z,17.32
2018-11-29T16:25:15.436Z,17.77
2018-11-29T16:27:44.723Z,19.57
2018-11-29T16:30:14.297Z,22.30
2018-11-29T16:32:43.621Z,13.07
2018-11-29T16:35:13.647Z,19.02
2018-11-29T16:37:42.881Z,21.00
2018-11-29T16:40:13.242Z,16.75
2018-11-29T16:42:42.768Z,19.80
2018-11-29T16:45:13.283Z,13.05
2018-11-29T16:47:42.595Z,17.70
2018-11-29T16:50:11.518Z,17.00
2018-11-29T16:52:40.462Z,11.80
2018-11-29T16:55:09.838Z,13.50
2018-11-29T16:57:39.288Z,15.53
2018-11-29T17:00:07.743Z,16.37
2018-11-29T17:02:36.742Z,18.23
2018-11-29T17:05:05.720Z,15.53
2018-11-29T17:07:35.352Z,18.37
2018-11-29T17:10:04.047Z,19.37
2018-11-29T17:12:33.035Z,19.17
2018-11-29T17:15:02.487Z,17.73
2018-11-29T17:17:31.760Z,18.90
2018-11-29T17:20:01.384Z,19.57
2018-11-29T17:22:30.698Z,18.17
2018-11-29T17:25:00.268Z,16.10
2018-11-29T17:27:29.707Z,14.13
2018-11-29T17:29:58.985Z,16.07
2018-11-29T17:32:28.539Z,15.72
2018-11-29T17:34:57.868Z,14.17
2018-11-29T17:37:27.640Z,18.45
2018-11-29T17:39:56.919Z,16.37
2018-11-29T17:42:26.743Z,14.63
2018-11-29T17:44:56.008Z,17.87
2018-11-29T17:47:25.640Z,17.85
2018-11-29T17:49:54.930Z,17.63
2018-11-29T17:55:15.750Z,15.13
2018-11-29T17:57:45.755Z,17.73
2018-11-29T18:00:15.498Z,20.30
2018-11-29T18:02:44.797Z,19.47
2018-11-29T18:05:14.387Z,17.55
2018-11-29T18:07:43.336Z,14.50
2018-11-29T18:10:13.437Z,15.80
2018-11-29T18:12:42.435Z,13.80
2018-11-29T18:15:13.245Z,19.07
2018-11-29T18:17:42.604Z,19.40
2018-11-29T18:20:11.872Z,11.80
2018-11-29T18:22:40.843Z,17.13
2018-11-29T18:25:09.842Z,14.93
2018-11-29T18:27:38.786Z,15.20
2018-11-29T18:30:07.959Z,12.30
2018-11-29T18:32:37.558Z,11.33
2018-11-29T18:35:06.265Z,14.17
2018-11-29T18:37:35.840Z,11.37
2018-11-29T18:40:05.527Z,11.70
2018-11-29T18:42:34.983Z,11.50
2018-11-29T18:45:03.983Z,13.28
2018-11-29T18:47:33.516Z,14.03
2018-11-29T18:50:02.783Z,14.07
2018-11-29T18:52:32.529Z,14.80
2018-11-29T18:55:01.811Z,16.43
2018-11-29T18:57:32.110Z,16.02
2018-11-29T19:00:01.736Z,19.00
2018-11-29T19:02:31.142Z,14.53
2018-11-29T19:05:00.622Z,14.33
2018-11-29T19:07:29.920Z,80.37
2018-11-29T19:09:59.496Z,11.03
2018-11-29T19:12:29.083Z,13.72
2018-11-29T19:14:58.643Z,15.63
2018-11-29T19:17:28.108Z,17.77
2018-11-29T19:19:57.693Z,14.50
2018-11-29T19:22:26.977Z,13.10
2018-11-29T19:24:56.531Z,14.47
2018-11-29T19:27:25.933Z,13.05
2018-11-29T19:29:55.214Z,13.33
2018-11-29T19:32:24.763Z,12.25
2018-11-29T19:34:54.062Z,13.70
2018-11-29T19:37:23.627Z,13.45
2018-11-29T19:39:52.684Z,11.27
2018-11-29T19:42:21.995Z,11.45
2018-11-29T19:44:51.344Z,11.27
2018-11-29T19:47:20.830Z,12.93
2018-11-29T19:49:50.311Z,12.03
2018-11-29T19:52:19.581Z,11.57
2018-11-29T19:54:48.882Z,11.90
2018-11-29T19:57:18.161Z,16.42
2018-11-29T19:59:48.144Z,9.95
2018-11-29T20:02:17.697Z,10.20
2018-11-29T20:04:46.984Z,13.13
2018-11-29T20:07:16.548Z,12.45
2018-11-29T20:09:45.864Z,11.90
2018-11-29T20:12:15.623Z,9.40
2018-11-29T20:14:44.964Z,10.30
2018-11-29T20:17:14.268Z,13.30
2018-11-29T20:19:43.692Z,13.43
2018-11-29T20:22:14.123Z,11.28
2018-11-29T20:24:43.680Z,13.08
2018-11-29T20:27:14.600Z,11.38
2018-11-29T20:29:44.625Z,11.10
2018-11-29T20:32:14.239Z,15.60
2018-11-29T20:34:43.519Z,9.60
2018-11-29T20:37:14.430Z,11.38
2018-11-29T20:39:43.812Z,11.03
2018-11-29T20:42:14.091Z,9.93
2018-11-29T20:44:43.379Z,12.33
2018-11-29T20:47:14.457Z,10.35
2018-11-29T20:49:43.887Z,9.00
2018-11-29T20:52:14.152Z,11.68
2018-11-29T20:54:43.751Z,10.72
2018-11-29T20:57:13.794Z,10.68
2018-11-29T20:59:43.079Z,11.23
2018-11-29T21:02:12.384Z,10.17
2018-11-29T21:04:41.972Z,11.13
2018-11-29T21:07:10.979Z,12.07
2018-11-29T21:09:41.009Z,10.90
2018-11-29T21:12:10.296Z,12.10
2018-11-29T21:14:40.208Z,9.35
2018-11-29T21:17:09.508Z,13.90
2018-11-29T21:19:38.537Z,13.23
2018-11-29T21:22:07.814Z,12.53
2018-11-29T21:24:37.261Z,13.93
2018-11-29T21:27:06.488Z,11.28
2018-11-29T21:29:37.020Z,11.50
2018-11-29T21:32:06.277Z,11.60
2018-11-29T21:34:35.853Z,10.48
2018-11-29T21:37:05.134Z,12.43
2018-11-29T21:39:34.468Z,12.00
2018-11-29T21:42:03.672Z,10.57
2018-11-29T21:44:32.939Z,10.93
2018-11-29T21:47:02.217Z,11.27
2018-11-29T21:49:32.676Z,11.27
2018-11-29T21:52:02.108Z,11.83
2018-11-29T21:54:31.283Z,10.80
2018-11-29T21:57:00.297Z,11.30
2018-11-29T21:59:29.515Z,10.55
2018-11-29T22:01:58.985Z,10.63
2018-11-29T22:04:28.369Z,11.47
2018-11-29T22:06:57.372Z,10.60
2018-11-29T22:09:27.093Z,10.30
2018-11-29T22:11:56.397Z,9.77
2018-11-29T22:14:26.269Z,11.78
2018-11-29T22:16:55.559Z,9.97
2018-11-29T22:19:25.113Z,10.85
2018-11-29T22:21:54.392Z,8.50
2018-11-29T22:24:23.944Z,10.45
2018-11-29T22:26:53.273Z,11.23
2018-11-29T22:29:22.545Z,8.45
2018-11-29T22:31:52.114Z,9.95
2018-11-29T22:34:21.447Z,9.20
2018-11-29T22:36:51.216Z,10.60
2018-11-29T22:39:20.452Z,9.10
2018-11-29T22:41:50.066Z,11.53
2018-11-29T22:44:20.800Z,10.53
2018-11-29T22:46:49.191Z,10.93
2018-11-29T22:49:18.477Z,12.37
2018-11-29T22:51:48.033Z,8.98
2018-11-29T22:54:18.108Z,8.67
2018-11-29T22:56:47.380Z,9.50
2018-11-29T22:59:16.666Z,11.90
2018-11-29T23:01:46.772Z,10.75
2018-11-29T23:04:16.669Z,10.67
2018-11-29T23:06:45.773Z,9.77
2018-11-29T23:09:15.437Z,10.17
2018-11-29T23:11:45.035Z,9.98
2018-11-29T23:14:14.621Z,10.23
2018-11-29T23:16:44.195Z,9.90
2018-11-29T23:19:14.659Z,12.00
2018-11-29T23:21:44.186Z,16.07
2018-11-29T23:24:14.483Z,11.20
2018-11-29T23:26:44.210Z,10.88
2018-11-29T23:29:15.019Z,10.45
2018-11-29T23:31:44.283Z,9.30
2018-11-29T23:34:15.155Z,13.08
2018-11-29T23:36:44.427Z,10.90
2018-11-29T23:39:14.567Z,10.95
2018-11-29T23:41:46.178Z,9.00
2018-11-29T23:44:15.734Z,8.10
2018-11-29T23:46:45.319Z,10.00
2018-11-29T23:49:14.737Z,11.03
2018-11-29T23:51:44.027Z,7.63
2018-11-29T23:54:15.808Z,10.72
2018-11-29T23:56:45.374Z,9.50
2018-11-29T23:59:14.700Z,10.70
